sensor_id;sensor_type;location;lat;lon;timestamp;P1;durP1;ratioP1;P2;durP2;ratioP2
14599;SDS011;7386;45.586;12.854;2023-07-29T00:01:11;13.30;;;11.32;;
14599;SDS011;7386;45.586;12.854;2023-07-29T00:03:39;12.45;;;11.13;;
14599;SDS011;7386;45.586;12.854;2023-07-29T00:06:09;12.27;;;9.23;;
14599;SDS011;7386;45.586;12.854;2023-07-29T00:08:37;11.40;;;9.15;;
14599;SDS011;7386;45.586;12.854;2023-07-29T00:11:06;11.32;;;8.52;;
14599;SDS011;7386;45.586;12.854;2023-07-29T00:13:34;11.20;;;7.95;;
14599;SDS011;7386;45.586;12.854;2023-07-29T00:16:03;12.30;;;8.00;;
14599;SDS011;7386;45.586;12.854;2023-07-29T00:18:34;10.50;;;6.93;;
14599;SDS011;7386;45.586;12.854;2023-07-29T00:21:02;10.27;;;6.63;;
14599;SDS011;7386;45.586;12.854;2023-07-29T00:23:31;8.73;;;5.70;;
14599;SDS011;7386;45.586;12.854;2023-07-29T00:25:59;7.68;;;5.82;;
14599;SDS011;7386;45.586;12.854;2023-07-29T00:28:28;6.47;;;5.35;;
14599;SDS011;7386;45.586;12.854;2023-07-29T00:30:56;7.68;;;5.70;;
14599;SDS011;7386;45.586;12.854;2023-07-29T00:33:25;14.45;;;5.10;;
14599;SDS011;7386;45.586;12.854;2023-07-29T00:35:55;6.38;;;4.85;;
14599;SDS011;7386;45.586;12.854;2023-07-29T00:38:23;6.32;;;4.70;;
14599;SDS011;7386;45.586;12.854;2023-07-29T00:40:52;8.95;;;5.28;;
14599;SDS011;7386;45.586;12.854;2023-07-29T00:43:20;7.18;;;4.55;;
14599;SDS011;7386;45.586;12.854;2023-07-29T00:45:48;7.75;;;5.20;;
14599;SDS011;7386;45.586;12.854;2023-07-29T00:48:17;7.97;;;4.68;;
14599;SDS011;7386;45.586;12.854;2023-07-29T00:50:46;6.45;;;4.43;;
14599;SDS011;7386;45.586;12.854;2023-07-29T00:53:16;8.05;;;4.30;;
14599;SDS011;7386;45.586;12.854;2023-07-29T00:55:45;8.70;;;4.50;;
14599;SDS011;7386;45.586;12.854;2023-07-29T00:58:13;7.00;;;4.25;;
14599;SDS011;7386;45.586;12.854;2023-07-29T01:00:42;5.57;;;3.95;;
14599;SDS011;7386;45.586;12.854;2023-07-29T01:03:10;6.22;;;4.43;;
14599;SDS011;7386;45.586;12.854;2023-07-29T01:05:40;5.57;;;4.43;;
14599;SDS011;7386;45.586;12.854;2023-07-29T01:08:16;6.75;;;4.05;;
14599;SDS011;7386;45.586;12.854;2023-07-29T01:10:53;5.57;;;4.32;;
14599;SDS011;7386;45.586;12.854;2023-07-29T01:13:26;5.00;;;3.85;;
14599;SDS011;7386;45.586;12.854;2023-07-29T01:15:59;5.43;;;3.83;;
14599;SDS011;7386;45.586;12.854;2023-07-29T01:18:30;6.00;;;4.03;;
14599;SDS011;7386;45.586;12.854;2023-07-29T01:20:59;6.55;;;4.05;;
14599;SDS011;7386;45.586;12.854;2023-07-29T01:23:30;5.38;;;3.80;;
14599;SDS011;7386;45.586;12.854;2023-07-29T01:25:58;6.60;;;4.10;;
14599;SDS011;7386;45.586;12.854;2023-07-29T01:28:27;5.50;;;3.80;;
14599;SDS011;7386;45.586;12.854;2023-07-29T01:30:57;6.97;;;4.07;;
14599;SDS011;7386;45.586;12.854;2023-07-29T01:33:26;8.25;;;3.95;;
14599;SDS011;7386;45.586;12.854;2023-07-29T01:35:57;5.18;;;4.13;;
14599;SDS011;7386;45.586;12.854;2023-07-29T01:38:28;4.57;;;3.60;;
14599;SDS011;7386;45.586;12.854;2023-07-29T01:41:01;6.90;;;4.05;;
14599;SDS011;7386;45.586;12.854;2023-07-29T01:43:29;5.80;;;4.05;;
14599;SDS011;7386;45.586;12.854;2023-07-29T01:45:58;5.55;;;3.97;;
14599;SDS011;7386;45.586;12.854;2023-07-29T01:48:27;4.70;;;3.78;;
14599;SDS011;7386;45.586;12.854;2023-07-29T01:50:56;8.13;;;4.10;;
14599;SDS011;7386;45.586;12.854;2023-07-29T01:53:25;5.85;;;3.90;;
14599;SDS011;7386;45.586;12.854;2023-07-29T01:55:53;5.32;;;3.92;;
14599;SDS011;7386;45.586;12.854;2023-07-29T01:58:24;5.65;;;3.95;;
14599;SDS011;7386;45.586;12.854;2023-07-29T02:00:53;6.13;;;3.83;;
14599;SDS011;7386;45.586;12.854;2023-07-29T02:03:21;5.00;;;3.78;;
14599;SDS011;7386;45.586;12.854;2023-07-29T02:05:50;5.20;;;4.18;;
14599;SDS011;7386;45.586;12.854;2023-07-29T02:08:18;6.22;;;3.80;;
14599;SDS011;7386;45.586;12.854;2023-07-29T02:10:47;7.13;;;3.95;;
14599;SDS011;7386;45.586;12.854;2023-07-29T02:13:15;7.45;;;4.13;;
14599;SDS011;7386;45.586;12.854;2023-07-29T02:15:45;6.00;;;3.95;;
14599;SDS011;7386;45.586;12.854;2023-07-29T02:18:14;6.32;;;3.70;;
14599;SDS011;7386;45.586;12.854;2023-07-29T02:20:42;6.95;;;4.10;;
14599;SDS011;7386;45.586;12.854;2023-07-29T02:23:16;5.30;;;4.18;;
14599;SDS011;7386;45.586;12.854;2023-07-29T02:25:44;8.02;;;4.50;;
14599;SDS011;7386;45.586;12.854;2023-07-29T02:28:13;5.30;;;4.00;;
14599;SDS011;7386;45.586;12.854;2023-07-29T02:30:41;5.20;;;4.13;;
14599;SDS011;7386;45.586;12.854;2023-07-29T02:33:12;6.38;;;4.20;;
14599;SDS011;7386;45.586;12.854;2023-07-29T02:35:41;5.15;;;4.25;;
14599;SDS011;7386;45.586;12.854;2023-07-29T02:38:10;7.30;;;4.45;;
14599;SDS011;7386;45.586;12.854;2023-07-29T02:40:38;6.47;;;4.30;;
14599;SDS011;7386;45.586;12.854;2023-07-29T02:43:07;8.98;;;4.28;;
14599;SDS011;7386;45.586;12.854;2023-07-29T02:45:36;6.60;;;4.30;;
14599;SDS011;7386;45.586;12.854;2023-07-29T02:48:04;6.88;;;4.25;;
14599;SDS011;7386;45.586;12.854;2023-07-29T02:50:35;7.75;;;4.70;;
14599;SDS011;7386;45.586;12.854;2023-07-29T02:53:04;5.80;;;4.35;;
14599;SDS011;7386;45.586;12.854;2023-07-29T02:55:32;8.27;;;4.00;;
14599;SDS011;7386;45.586;12.854;2023-07-29T02:58:00;6.63;;;3.95;;
14599;SDS011;7386;45.586;12.854;2023-07-29T03:00:30;9.02;;;4.43;;
14599;SDS011;7386;45.586;12.854;2023-07-29T03:02:59;8.57;;;4.20;;
14599;SDS011;7386;45.586;12.854;2023-07-29T03:05:28;6.00;;;4.45;;
14599;SDS011;7386;45.586;12.854;2023-07-29T03:07:58;7.03;;;4.18;;
14599;SDS011;7386;45.586;12.854;2023-07-29T03:10:27;7.40;;;4.18;;
14599;SDS011;7386;45.586;12.854;2023-07-29T03:12:55;7.53;;;4.60;;
14599;SDS011;7386;45.586;12.854;2023-07-29T03:15:24;8.52;;;4.30;;
14599;SDS011;7386;45.586;12.854;2023-07-29T03:17:52;6.22;;;4.32;;
14599;SDS011;7386;45.586;12.854;2023-07-29T03:20:21;7.65;;;4.32;;
14599;SDS011;7386;45.586;12.854;2023-07-29T03:22:50;8.65;;;4.25;;
14599;SDS011;7386;45.586;12.854;2023-07-29T03:25:20;6.50;;;4.35;;
14599;SDS011;7386;45.586;12.854;2023-07-29T03:27:48;5.75;;;4.30;;
14599;SDS011;7386;45.586;12.854;2023-07-29T03:30:19;6.88;;;4.53;;
14599;SDS011;7386;45.586;12.854;2023-07-29T03:32:48;6.43;;;4.13;;
14599;SDS011;7386;45.586;12.854;2023-07-29T03:35:17;8.05;;;4.20;;
14599;SDS011;7386;45.586;12.854;2023-07-29T03:37:45;7.85;;;4.40;;
14599;SDS011;7386;45.586;12.854;2023-07-29T03:40:14;8.68;;;5.03;;
14599;SDS011;7386;45.586;12.854;2023-07-29T03:42:44;9.00;;;4.70;;
14599;SDS011;7386;45.586;12.854;2023-07-29T03:45:12;8.30;;;4.32;;
14599;SDS011;7386;45.586;12.854;2023-07-29T03:47:40;7.28;;;5.25;;
14599;SDS011;7386;45.586;12.854;2023-07-29T03:50:09;7.90;;;5.22;;
14599;SDS011;7386;45.586;12.854;2023-07-29T03:52:38;6.57;;;5.53;;
14599;SDS011;7386;45.586;12.854;2023-07-29T03:55:07;7.03;;;5.57;;
14599;SDS011;7386;45.586;12.854;2023-07-29T03:57:35;7.20;;;5.57;;
14599;SDS011;7386;45.586;12.854;2023-07-29T04:00:06;11.20;;;6.45;;
14599;SDS011;7386;45.586;12.854;2023-07-29T04:02:37;8.65;;;6.03;;
14599;SDS011;7386;45.586;12.854;2023-07-29T04:05:05;7.65;;;5.45;;
14599;SDS011;7386;45.586;12.854;2023-07-29T04:07:35;9.85;;;6.28;;
14599;SDS011;7386;45.586;12.854;2023-07-29T04:10:04;9.38;;;6.50;;
14599;SDS011;7386;45.586;12.854;2023-07-29T04:12:32;8.80;;;6.50;;
14599;SDS011;7386;45.586;12.854;2023-07-29T04:15:01;7.05;;;6.00;;
14599;SDS011;7386;45.586;12.854;2023-07-29T04:17:31;8.45;;;6.28;;
14599;SDS011;7386;45.586;12.854;2023-07-29T04:20:00;9.10;;;6.03;;
14599;SDS011;7386;45.586;12.854;2023-07-29T04:22:29;8.63;;;6.03;;
14599;SDS011;7386;45.586;12.854;2023-07-29T04:24:58;8.18;;;5.75;;
14599;SDS011;7386;45.586;12.854;2023-07-29T04:27:27;8.75;;;5.88;;
14599;SDS011;7386;45.586;12.854;2023-07-29T04:29:56;7.50;;;5.40;;
14599;SDS011;7386;45.586;12.854;2023-07-29T04:32:24;9.88;;;5.72;;
14599;SDS011;7386;45.586;12.854;2023-07-29T04:34:54;9.75;;;5.60;;
14599;SDS011;7386;45.586;12.854;2023-07-29T04:37:23;7.60;;;5.53;;
14599;SDS011;7386;45.586;12.854;2023-07-29T04:39:51;8.15;;;5.13;;
14599;SDS011;7386;45.586;12.854;2023-07-29T04:42:20;6.78;;;4.90;;
14599;SDS011;7386;45.586;12.854;2023-07-29T04:44:48;6.47;;;4.93;;
14599;SDS011;7386;45.586;12.854;2023-07-29T04:47:17;8.10;;;4.85;;
14599;SDS011;7386;45.586;12.854;2023-07-29T04:49:45;8.45;;;5.40;;
14599;SDS011;7386;45.586;12.854;2023-07-29T04:52:15;8.60;;;5.53;;
14599;SDS011;7386;45.586;12.854;2023-07-29T04:54:45;6.80;;;4.68;;
14599;SDS011;7386;45.586;12.854;2023-07-29T04:57:14;8.45;;;5.07;;
14599;SDS011;7386;45.586;12.854;2023-07-29T04:59:42;5.65;;;4.80;;
14599;SDS011;7386;45.586;12.854;2023-07-29T05:02:11;9.35;;;5.05;;
14599;SDS011;7386;45.586;12.854;2023-07-29T05:04:39;7.20;;;4.40;;
14599;SDS011;7386;45.586;12.854;2023-07-29T05:07:08;7.47;;;4.90;;
14599;SDS011;7386;45.586;12.854;2023-07-29T05:09:38;10.05;;;5.00;;
14599;SDS011;7386;45.586;12.854;2023-07-29T05:12:06;4.82;;;4.30;;
14599;SDS011;7386;45.586;12.854;2023-07-29T05:14:35;5.47;;;4.43;;
14599;SDS011;7386;45.586;12.854;2023-07-29T05:17:04;7.78;;;4.82;;
14599;SDS011;7386;45.586;12.854;2023-07-29T05:19:32;6.25;;;4.55;;
14599;SDS011;7386;45.586;12.854;2023-07-29T05:22:01;7.63;;;4.85;;
14599;SDS011;7386;45.586;12.854;2023-07-29T05:24:30;6.75;;;4.40;;
14599;SDS011;7386;45.586;12.854;2023-07-29T05:27:00;6.85;;;4.10;;
14599;SDS011;7386;45.586;12.854;2023-07-29T05:29:29;6.82;;;4.15;;
14599;SDS011;7386;45.586;12.854;2023-07-29T05:31:57;7.53;;;4.60;;
14599;SDS011;7386;45.586;12.854;2023-07-29T05:34:26;7.63;;;4.45;;
14599;SDS011;7386;45.586;12.854;2023-07-29T05:36:54;6.18;;;4.30;;
14599;SDS011;7386;45.586;12.854;2023-07-29T05:39:23;6.65;;;4.13;;
14599;SDS011;7386;45.586;12.854;2023-07-29T05:41:51;7.63;;;4.40;;
14599;SDS011;7386;45.586;12.854;2023-07-29T05:44:21;6.20;;;4.10;;
14599;SDS011;7386;45.586;12.854;2023-07-29T05:46:50;6.53;;;4.15;;
14599;SDS011;7386;45.586;12.854;2023-07-29T05:49:18;8.15;;;4.13;;
14599;SDS011;7386;45.586;12.854;2023-07-29T05:51:47;6.68;;;3.97;;
14599;SDS011;7386;45.586;12.854;2023-07-29T05:54:17;5.30;;;3.65;;
14599;SDS011;7386;45.586;12.854;2023-07-29T05:56:46;4.45;;;3.40;;
14599;SDS011;7386;45.586;12.854;2023-07-29T05:59:14;5.07;;;3.50;;
14599;SDS011;7386;45.586;12.854;2023-07-29T06:01:44;3.38;;;3.05;;
14599;SDS011;7386;45.586;12.854;2023-07-29T06:04:13;4.15;;;3.08;;
14599;SDS011;7386;45.586;12.854;2023-07-29T06:06:41;3.75;;;3.08;;
14599;SDS011;7386;45.586;12.854;2023-07-29T06:09:09;4.43;;;3.22;;
14599;SDS011;7386;45.586;12.854;2023-07-29T06:11:38;4.50;;;3.08;;
14599;SDS011;7386;45.586;12.854;2023-07-29T06:14:06;3.25;;;2.95;;
14599;SDS011;7386;45.586;12.854;2023-07-29T06:16:35;3.63;;;2.70;;
14599;SDS011;7386;45.586;12.854;2023-07-29T06:19:04;4.13;;;2.83;;
14599;SDS011;7386;45.586;12.854;2023-07-29T06:21:35;3.10;;;2.80;;
14599;SDS011;7386;45.586;12.854;2023-07-29T06:24:04;3.83;;;2.97;;
14599;SDS011;7386;45.586;12.854;2023-07-29T06:26:36;3.33;;;2.53;;
14599;SDS011;7386;45.586;12.854;2023-07-29T06:29:04;3.72;;;2.80;;
14599;SDS011;7386;45.586;12.854;2023-07-29T06:31:33;4.05;;;2.65;;
14599;SDS011;7386;45.586;12.854;2023-07-29T06:34:01;6.03;;;3.33;;
14599;SDS011;7386;45.586;12.854;2023-07-29T06:36:31;3.65;;;2.83;;
14599;SDS011;7386;45.586;12.854;2023-07-29T06:39:00;53.70;;;16.98;;
14599;SDS011;7386;45.586;12.854;2023-07-29T06:41:29;41.58;;;17.02;;
14599;SDS011;7386;45.586;12.854;2023-07-29T06:43:58;33.00;;;13.52;;
14599;SDS011;7386;45.586;12.854;2023-07-29T06:46:26;21.05;;;9.48;;
14599;SDS011;7386;45.586;12.854;2023-07-29T06:48:55;21.63;;;8.32;;
14599;SDS011;7386;45.586;12.854;2023-07-29T06:51:23;19.52;;;8.32;;
14599;SDS011;7386;45.586;12.854;2023-07-29T06:53:53;12.55;;;6.07;;
14599;SDS011;7386;45.586;12.854;2023-07-29T06:56:22;10.63;;;5.38;;
14599;SDS011;7386;45.586;12.854;2023-07-29T06:58:50;9.02;;;4.10;;
14599;SDS011;7386;45.586;12.854;2023-07-29T07:01:19;7.15;;;3.92;;
14599;SDS011;7386;45.586;12.854;2023-07-29T07:03:47;6.80;;;3.67;;
14599;SDS011;7386;45.586;12.854;2023-07-29T07:06:16;5.43;;;3.50;;
14599;SDS011;7386;45.586;12.854;2023-07-29T07:08:44;5.78;;;3.80;;
14599;SDS011;7386;45.586;12.854;2023-07-29T07:11:14;9.13;;;4.05;;
14599;SDS011;7386;45.586;12.854;2023-07-29T07:13:42;7.13;;;3.88;;
14599;SDS011;7386;45.586;12.854;2023-07-29T07:16:11;7.00;;;3.95;;
14599;SDS011;7386;45.586;12.854;2023-07-29T07:18:39;7.95;;;4.00;;
14599;SDS011;7386;45.586;12.854;2023-07-29T07:21:08;6.70;;;4.05;;
14599;SDS011;7386;45.586;12.854;2023-07-29T07:23:38;5.25;;;3.75;;
14599;SDS011;7386;45.586;12.854;2023-07-29T07:26:06;5.57;;;3.97;;
14599;SDS011;7386;45.586;12.854;2023-07-29T07:28:36;5.97;;;4.03;;
14599;SDS011;7386;45.586;12.854;2023-07-29T07:31:05;8.73;;;4.25;;
14599;SDS011;7386;45.586;12.854;2023-07-29T07:33:33;8.15;;;4.00;;
14599;SDS011;7386;45.586;12.854;2023-07-29T07:36:02;4.70;;;3.75;;
14599;SDS011;7386;45.586;12.854;2023-07-29T07:38:30;7.88;;;3.70;;
14599;SDS011;7386;45.586;12.854;2023-07-29T07:40:59;9.15;;;4.22;;
14599;SDS011;7386;45.586;12.854;2023-07-29T07:43:27;10.32;;;4.20;;
14599;SDS011;7386;45.586;12.854;2023-07-29T07:46:00;6.90;;;3.65;;
14599;SDS011;7386;45.586;12.854;2023-07-29T07:48:29;4.57;;;3.40;;
14599;SDS011;7386;45.586;12.854;2023-07-29T07:50:59;6.90;;;3.60;;
14599;SDS011;7386;45.586;12.854;2023-07-29T07:53:27;7.32;;;3.53;;
14599;SDS011;7386;45.586;12.854;2023-07-29T07:55:56;6.63;;;3.58;;
14599;SDS011;7386;45.586;12.854;2023-07-29T07:58:24;4.25;;;3.30;;
14599;SDS011;7386;45.586;12.854;2023-07-29T08:01:01;7.18;;;3.45;;
14599;SDS011;7386;45.586;12.854;2023-07-29T08:03:30;7.00;;;3.92;;
14599;SDS011;7386;45.586;12.854;2023-07-29T08:05:59;6.35;;;3.75;;
14599;SDS011;7386;45.586;12.854;2023-07-29T08:08:27;7.45;;;3.40;;
14599;SDS011;7386;45.586;12.854;2023-07-29T08:10:56;5.38;;;3.58;;
14599;SDS011;7386;45.586;12.854;2023-07-29T08:13:25;4.55;;;3.25;;
14599;SDS011;7386;45.586;12.854;2023-07-29T08:15:53;6.53;;;3.65;;
14599;SDS011;7386;45.586;12.854;2023-07-29T08:18:23;7.90;;;3.60;;
14599;SDS011;7386;45.586;12.854;2023-07-29T08:20:52;7.05;;;3.80;;
14599;SDS011;7386;45.586;12.854;2023-07-29T08:23:21;5.57;;;3.67;;
14599;SDS011;7386;45.586;12.854;2023-07-29T08:25:51;8.30;;;3.58;;
14599;SDS011;7386;45.586;12.854;2023-07-29T08:28:20;5.75;;;3.78;;
14599;SDS011;7386;45.586;12.854;2023-07-29T08:30:49;4.95;;;3.40;;
14599;SDS011;7386;45.586;12.854;2023-07-29T08:33:17;6.25;;;3.70;;
14599;SDS011;7386;45.586;12.854;2023-07-29T08:35:47;6.68;;;3.67;;
14599;SDS011;7386;45.586;12.854;2023-07-29T08:38:16;7.43;;;3.55;;
14599;SDS011;7386;45.586;12.854;2023-07-29T08:40:45;6.75;;;4.35;;
14599;SDS011;7386;45.586;12.854;2023-07-29T08:43:14;9.60;;;5.00;;
14599;SDS011;7386;45.586;12.854;2023-07-29T08:45:44;7.75;;;4.28;;
14599;SDS011;7386;45.586;12.854;2023-07-29T08:48:15;12.93;;;6.90;;
14599;SDS011;7386;45.586;12.854;2023-07-29T08:50:49;9.20;;;5.35;;
14599;SDS011;7386;45.586;12.854;2023-07-29T08:53:18;16.02;;;12.18;;
14599;SDS011;7386;45.586;12.854;2023-07-29T08:55:47;13.25;;;9.40;;
14599;SDS011;7386;45.586;12.854;2023-07-29T08:58:16;17.70;;;12.05;;
14599;SDS011;7386;45.586;12.854;2023-07-29T09:00:45;20.15;;;16.65;;
14599;SDS011;7386;45.586;12.854;2023-07-29T09:03:14;22.42;;;16.83;;
14599;SDS011;7386;45.586;12.854;2023-07-29T09:05:43;23.77;;;17.55;;
14599;SDS011;7386;45.586;12.854;2023-07-29T09:08:13;26.52;;;17.77;;
14599;SDS011;7386;45.586;12.854;2023-07-29T09:10:42;25.52;;;17.88;;
14599;SDS011;7386;45.586;12.854;2023-07-29T09:13:10;20.23;;;14.38;;
14599;SDS011;7386;45.586;12.854;2023-07-29T09:15:39;24.45;;;19.38;;
14599;SDS011;7386;45.586;12.854;2023-07-29T09:18:09;32.08;;;25.13;;
14599;SDS011;7386;45.586;12.854;2023-07-29T09:20:37;29.08;;;22.15;;
14599;SDS011;7386;45.586;12.854;2023-07-29T09:23:07;21.98;;;16.35;;
14599;SDS011;7386;45.586;12.854;2023-07-29T09:25:38;31.65;;;25.13;;
14599;SDS011;7386;45.586;12.854;2023-07-29T09:28:07;34.15;;;26.63;;
14599;SDS011;7386;45.586;12.854;2023-07-29T09:30:37;39.97;;;30.88;;
14599;SDS011;7386;45.586;12.854;2023-07-29T09:33:06;42.00;;;32.72;;
14599;SDS011;7386;45.586;12.854;2023-07-29T09:35:35;46.85;;;35.50;;
14599;SDS011;7386;45.586;12.854;2023-07-29T09:38:04;28.35;;;21.35;;
14599;SDS011;7386;45.586;12.854;2023-07-29T09:40:36;46.67;;;36.33;;
14599;SDS011;7386;45.586;12.854;2023-07-29T09:43:08;50.50;;;37.70;;
14599;SDS011;7386;45.586;12.854;2023-07-29T09:45:37;51.00;;;37.83;;
14599;SDS011;7386;45.586;12.854;2023-07-29T09:48:05;38.67;;;28.92;;
14599;SDS011;7386;45.586;12.854;2023-07-29T09:50:36;26.27;;;18.98;;
14599;SDS011;7386;45.586;12.854;2023-07-29T09:53:05;14.80;;;11.27;;
14599;SDS011;7386;45.586;12.854;2023-07-29T09:55:35;12.82;;;8.50;;
14599;SDS011;7386;45.586;12.854;2023-07-29T09:58:03;31.23;;;22.80;;
14599;SDS011;7386;45.586;12.854;2023-07-29T10:00:36;26.55;;;20.20;;
14599;SDS011;7386;45.586;12.854;2023-07-29T10:03:05;30.58;;;22.42;;
14599;SDS011;7386;45.586;12.854;2023-07-29T10:05:34;37.20;;;28.65;;
14599;SDS011;7386;45.586;12.854;2023-07-29T10:08:05;28.80;;;20.42;;
14599;SDS011;7386;45.586;12.854;2023-07-29T10:10:34;47.28;;;32.22;;
14599;SDS011;7386;45.586;12.854;2023-07-29T10:13:02;36.70;;;25.63;;
14599;SDS011;7386;45.586;12.854;2023-07-29T10:15:31;31.88;;;23.33;;
14599;SDS011;7386;45.586;12.854;2023-07-29T10:18:02;41.78;;;31.02;;
14599;SDS011;7386;45.586;12.854;2023-07-29T10:20:30;37.17;;;27.25;;
14599;SDS011;7386;45.586;12.854;2023-07-29T10:23:00;49.35;;;37.40;;
14599;SDS011;7386;45.586;12.854;2023-07-29T10:25:31;34.53;;;23.73;;
14599;SDS011;7386;45.586;12.854;2023-07-29T10:28:04;46.33;;;34.85;;
14599;SDS011;7386;45.586;12.854;2023-07-29T10:30:33;43.35;;;32.78;;
14599;SDS011;7386;45.586;12.854;2023-07-29T10:33:03;27.02;;;19.35;;
14599;SDS011;7386;45.586;12.854;2023-07-29T10:35:33;19.27;;;13.60;;
14599;SDS011;7386;45.586;12.854;2023-07-29T10:38:02;17.90;;;12.55;;
14599;SDS011;7386;45.586;12.854;2023-07-29T10:40:44;11.02;;;7.55;;
14599;SDS011;7386;45.586;12.854;2023-07-29T10:43:13;20.40;;;14.98;;
14599;SDS011;7386;45.586;12.854;2023-07-29T10:45:46;19.05;;;14.40;;
14599;SDS011;7386;45.586;12.854;2023-07-29T10:48:41;35.22;;;25.23;;
14599;SDS011;7386;45.586;12.854;2023-07-29T10:51:21;22.60;;;15.48;;
14599;SDS011;7386;45.586;12.854;2023-07-29T10:53:51;38.03;;;27.75;;
14599;SDS011;7386;45.586;12.854;2023-07-29T10:56:24;22.40;;;15.85;;
14599;SDS011;7386;45.586;12.854;2023-07-29T10:58:54;13.38;;;9.63;;
14599;SDS011;7386;45.586;12.854;2023-07-29T11:01:27;26.08;;;17.40;;
14599;SDS011;7386;45.586;12.854;2023-07-29T11:09:41;22.80;;;16.65;;
14599;SDS011;7386;45.586;12.854;2023-07-29T11:14:53;26.80;;;19.50;;
14599;SDS011;7386;45.586;12.854;2023-07-29T11:17:22;41.60;;;31.42;;
14599;SDS011;7386;45.586;12.854;2023-07-29T11:19:51;32.95;;;24.20;;
14599;SDS011;7386;45.586;12.854;2023-07-29T11:22:19;21.40;;;16.80;;
14599;SDS011;7386;45.586;12.854;2023-07-29T11:24:50;36.00;;;27.10;;
14599;SDS011;7386;45.586;12.854;2023-07-29T11:27:18;25.90;;;19.40;;
14599;SDS011;7386;45.586;12.854;2023-07-29T11:29:47;17.75;;;12.63;;
14599;SDS011;7386;45.586;12.854;2023-07-29T11:32:15;11.63;;;7.47;;
14599;SDS011;7386;45.586;12.854;2023-07-29T11:34:44;23.63;;;17.02;;
14599;SDS011;7386;45.586;12.854;2023-07-29T11:37:13;22.42;;;14.73;;
14599;SDS011;7386;45.586;12.854;2023-07-29T11:39:41;27.65;;;18.55;;
14599;SDS011;7386;45.586;12.854;2023-07-29T11:42:11;29.63;;;22.98;;
14599;SDS011;7386;45.586;12.854;2023-07-29T11:44:40;23.27;;;18.05;;
14599;SDS011;7386;45.586;12.854;2023-07-29T11:47:09;43.20;;;34.15;;
14599;SDS011;7386;45.586;12.854;2023-07-29T11:49:39;62.63;;;45.63;;
14599;SDS011;7386;45.586;12.854;2023-07-29T11:52:08;38.67;;;29.23;;
14599;SDS011;7386;45.586;12.854;2023-07-29T11:54:37;38.15;;;28.38;;
14599;SDS011;7386;45.586;12.854;2023-07-29T11:57:06;37.30;;;29.02;;
14599;SDS011;7386;45.586;12.854;2023-07-29T11:59:37;32.17;;;22.88;;
14599;SDS011;7386;45.586;12.854;2023-07-29T12:02:06;23.45;;;16.52;;
14599;SDS011;7386;45.586;12.854;2023-07-29T12:04:35;33.72;;;24.85;;
14599;SDS011;7386;45.586;12.854;2023-07-29T12:07:04;30.05;;;21.83;;
14599;SDS011;7386;45.586;12.854;2023-07-29T12:09:33;15.57;;;10.05;;
14599;SDS011;7386;45.586;12.854;2023-07-29T12:12:02;31.70;;;23.50;;
14599;SDS011;7386;45.586;12.854;2023-07-29T12:14:31;26.15;;;20.70;;
14599;SDS011;7386;45.586;12.854;2023-07-29T12:17:01;14.13;;;10.88;;
14599;SDS011;7386;45.586;12.854;2023-07-29T12:19:31;7.93;;;5.63;;
14599;SDS011;7386;45.586;12.854;2023-07-29T12:22:01;28.02;;;17.40;;
14599;SDS011;7386;45.586;12.854;2023-07-29T12:24:29;37.45;;;23.05;;
14599;SDS011;7386;45.586;12.854;2023-07-29T12:26:58;19.23;;;11.88;;
14599;SDS011;7386;45.586;12.854;2023-07-29T12:29:27;10.05;;;5.72;;
14599;SDS011;7386;45.586;12.854;2023-07-29T12:31:59;23.23;;;16.63;;
14599;SDS011;7386;45.586;12.854;2023-07-29T12:34:29;17.88;;;12.68;;
14599;SDS011;7386;45.586;12.854;2023-07-29T12:36:58;11.93;;;8.02;;
14599;SDS011;7386;45.586;12.854;2023-07-29T12:39:27;8.90;;;5.80;;
14599;SDS011;7386;45.586;12.854;2023-07-29T12:41:56;6.95;;;4.50;;
14599;SDS011;7386;45.586;12.854;2023-07-29T12:44:27;20.05;;;11.95;;
14599;SDS011;7386;45.586;12.854;2023-07-29T12:46:55;26.73;;;20.63;;
14599;SDS011;7386;45.586;12.854;2023-07-29T12:49:24;43.10;;;31.58;;
14599;SDS011;7386;45.586;12.854;2023-07-29T12:51:54;30.27;;;17.98;;
14599;SDS011;7386;45.586;12.854;2023-07-29T12:54:23;16.98;;;12.05;;
14599;SDS011;7386;45.586;12.854;2023-07-29T12:56:51;11.75;;;7.43;;
14599;SDS011;7386;45.586;12.854;2023-07-29T12:59:20;11.90;;;7.35;;
14599;SDS011;7386;45.586;12.854;2023-07-29T13:01:48;10.00;;;5.60;;
14599;SDS011;7386;45.586;12.854;2023-07-29T13:04:17;34.97;;;23.13;;
14599;SDS011;7386;45.586;12.854;2023-07-29T13:06:46;30.52;;;22.27;;
14599;SDS011;7386;45.586;12.854;2023-07-29T13:09:16;15.82;;;12.23;;
14599;SDS011;7386;45.586;12.854;2023-07-29T13:11:45;19.77;;;14.57;;
14599;SDS011;7386;45.586;12.854;2023-07-29T13:14:13;12.73;;;8.93;;
14599;SDS011;7386;45.586;12.854;2023-07-29T13:16:42;11.90;;;6.72;;
14599;SDS011;7386;45.586;12.854;2023-07-29T13:19:10;8.40;;;5.25;;
14599;SDS011;7386;45.586;12.854;2023-07-29T13:21:39;26.63;;;19.98;;
14599;SDS011;7386;45.586;12.854;2023-07-29T13:24:07;29.38;;;22.25;;
14599;SDS011;7386;45.586;12.854;2023-07-29T13:26:37;16.67;;;11.43;;
14599;SDS011;7386;45.586;12.854;2023-07-29T13:29:06;12.35;;;8.88;;
14599;SDS011;7386;45.586;12.854;2023-07-29T13:31:35;12.10;;;8.18;;
14599;SDS011;7386;45.586;12.854;2023-07-29T13:34:03;10.40;;;5.75;;
14599;SDS011;7386;45.586;12.854;2023-07-29T13:36:32;8.27;;;5.10;;
14599;SDS011;7386;45.586;12.854;2023-07-29T13:39:01;10.32;;;5.63;;
14599;SDS011;7386;45.586;12.854;2023-07-29T13:41:29;10.25;;;5.68;;
14599;SDS011;7386;45.586;12.854;2023-07-29T13:43:59;7.88;;;4.93;;
14599;SDS011;7386;45.586;12.854;2023-07-29T13:46:28;20.52;;;13.30;;
14599;SDS011;7386;45.586;12.854;2023-07-29T13:48:56;17.23;;;12.02;;
14599;SDS011;7386;45.586;12.854;2023-07-29T13:51:25;13.10;;;7.20;;
14599;SDS011;7386;45.586;12.854;2023-07-29T13:53:53;7.10;;;4.47;;
14599;SDS011;7386;45.586;12.854;2023-07-29T13:56:22;7.15;;;3.97;;
14599;SDS011;7386;45.586;12.854;2023-07-29T13:58:51;7.10;;;3.92;;
14599;SDS011;7386;45.586;12.854;2023-07-29T14:01:21;9.00;;;3.92;;
14599;SDS011;7386;45.586;12.854;2023-07-29T14:03:49;7.03;;;3.75;;
14599;SDS011;7386;45.586;12.854;2023-07-29T14:06:18;11.05;;;4.10;;
14599;SDS011;7386;45.586;12.854;2023-07-29T14:09:01;7.47;;;3.97;;
14599;SDS011;7386;45.586;12.854;2023-07-29T14:11:29;8.43;;;3.95;;
14599;SDS011;7386;45.586;12.854;2023-07-29T14:13:57;8.48;;;4.60;;
14599;SDS011;7386;45.586;12.854;2023-07-29T14:16:27;8.38;;;4.93;;
14599;SDS011;7386;45.586;12.854;2023-07-29T14:18:56;11.02;;;6.60;;
14599;SDS011;7386;45.586;12.854;2023-07-29T14:21:24;7.78;;;5.57;;
14599;SDS011;7386;45.586;12.854;2023-07-29T14:23:53;9.07;;;5.05;;
14599;SDS011;7386;45.586;12.854;2023-07-29T14:26:21;9.52;;;5.18;;
14599;SDS011;7386;45.586;12.854;2023-07-29T14:28:50;7.50;;;4.70;;
14599;SDS011;7386;45.586;12.854;2023-07-29T14:31:19;7.97;;;4.32;;
14599;SDS011;7386;45.586;12.854;2023-07-29T14:33:50;6.32;;;4.35;;
14599;SDS011;7386;45.586;12.854;2023-07-29T14:36:18;12.35;;;5.30;;
14599;SDS011;7386;45.586;12.854;2023-07-29T14:38:47;7.82;;;4.78;;
14599;SDS011;7386;45.586;12.854;2023-07-29T14:41:15;7.50;;;5.25;;
14599;SDS011;7386;45.586;12.854;2023-07-29T14:43:44;9.02;;;5.10;;
14599;SDS011;7386;45.586;12.854;2023-07-29T14:46:12;10.60;;;5.40;;
14599;SDS011;7386;45.586;12.854;2023-07-29T14:48:41;8.40;;;4.97;;
14599;SDS011;7386;45.586;12.854;2023-07-29T14:51:11;11.43;;;5.07;;
14599;SDS011;7386;45.586;12.854;2023-07-29T14:53:39;9.40;;;4.60;;
14599;SDS011;7386;45.586;12.854;2023-07-29T14:56:08;8.90;;;4.97;;
14599;SDS011;7386;45.586;12.854;2023-07-29T14:58:36;8.30;;;4.40;;